createdAt,value
2023-04-07T00:00:39.224Z,99.90
2023-04-07T00:03:07.741Z,99.90
2023-04-07T00:05:34.827Z,99.90
2023-04-07T00:08:01.398Z,99.90
2023-04-07T00:10:27.947Z,99.90
2023-04-07T00:12:54.590Z,99.90
2023-04-07T00:15:21.170Z,99.90
2023-04-07T00:17:47.798Z,99.90
2023-04-07T00:20:14.904Z,99.90
2023-04-07T00:22:41.582Z,99.90
2023-04-07T00:25:08.528Z,99.90
2023-04-07T00:27:35.248Z,99.90
2023-04-07T00:30:02.333Z,99.90
2023-04-07T00:32:28.955Z,99.90
2023-04-07T00:34:55.708Z,99.90
2023-04-07T00:37:22.316Z,99.90
2023-04-07T00:39:48.906Z,99.90
2023-04-07T00:42:15.676Z,99.90
2023-04-07T00:44:42.332Z,99.90
2023-04-07T00:47:09.076Z,99.90
2023-04-07T00:49:37.470Z,99.90
2023-04-07T00:52:06.130Z,99.90
2023-04-07T00:54:32.960Z,99.90
2023-04-07T00:56:59.534Z,99.90
2023-04-07T00:59:26.226Z,99.90
2023-04-07T01:02:01.657Z,99.90
2023-04-07T01:04:43.445Z,99.90
2023-04-07T01:07:17.916Z,99.90
2023-04-07T01:10:11.694Z,99.90
2023-04-07T01:12:53.479Z,99.90
2023-04-07T01:15:22.761Z,99.90
2023-04-07T01:17:56.231Z,99.90
2023-04-07T01:20:26.800Z,99.90
2023-04-07T01:22:57.662Z,99.90
2023-04-07T01:25:53.645Z,99.90
2023-04-07T01:28:38.744Z,99.90
2023-04-07T01:31:07.489Z,99.90
2023-04-07T01:33:36.720Z,99.90
2023-04-07T01:36:06.659Z,99.90
2023-04-07T01:38:34.570Z,99.90
2023-04-07T01:41:02.804Z,99.90
2023-04-07T01:43:30.966Z,99.90
2023-04-07T01:45:58.101Z,99.90
2023-04-07T01:48:25.746Z,99.90
2023-04-07T01:50:53.163Z,99.90
2023-04-07T01:53:20.208Z,99.90
2023-04-07T01:55:46.812Z,99.90
2023-04-07T01:58:13.438Z,99.90
2023-04-07T02:00:40.851Z,99.90
2023-04-07T02:03:16.777Z,99.90
2023-04-07T02:05:43.656Z,99.90
2023-04-07T02:08:11.633Z,99.90
2023-04-07T02:10:39.199Z,99.90
2023-04-07T02:13:08.986Z,99.90
2023-04-07T02:15:37.345Z,99.90
2023-04-07T02:18:04.590Z,99.90
2023-04-07T02:20:31.797Z,99.90
2023-04-07T02:22:58.558Z,99.90
2023-04-07T02:25:30.859Z,99.90
2023-04-07T02:27:59.384Z,99.90
2023-04-07T02:30:27.243Z,99.90
2023-04-07T02:32:54.050Z,99.90
2023-04-07T02:35:21.102Z,99.90
2023-04-07T02:37:48.059Z,99.90
2023-04-07T02:40:15.653Z,99.90
2023-04-07T02:42:42.557Z,99.90
2023-04-07T02:45:10.093Z,99.90
2023-04-07T02:47:37.654Z,99.90
2023-04-07T02:50:05.047Z,99.90
2023-04-07T02:52:31.717Z,99.90
2023-04-07T02:54:58.256Z,99.90
2023-04-07T02:57:24.944Z,99.90
2023-04-07T02:59:51.512Z,99.90
2023-04-07T03:02:18.156Z,99.90
2023-04-07T03:04:44.789Z,99.90
2023-04-07T03:07:11.390Z,99.90
2023-04-07T03:09:37.986Z,99.90
2023-04-07T03:12:04.670Z,99.90
2023-04-07T03:14:31.391Z,99.90
2023-04-07T03:16:57.982Z,99.90
2023-04-07T03:19:24.601Z,99.90
2023-04-07T03:21:51.432Z,99.90
2023-04-07T03:24:18.323Z,99.90
2023-04-07T03:26:44.909Z,99.90
2023-04-07T03:29:11.495Z,99.90
2023-04-07T03:31:38.136Z,99.90
2023-04-07T03:34:05.494Z,99.90
2023-04-07T03:36:32.044Z,99.90
2023-04-07T03:38:58.707Z,99.90
2023-04-07T03:41:25.409Z,99.90
2023-04-07T03:43:52.270Z,99.90
2023-04-07T03:46:22.378Z,99.90
2023-04-07T03:48:49.030Z,99.90
2023-04-07T03:51:15.672Z,99.90
2023-04-07T03:53:42.306Z,99.90
2023-04-07T03:56:08.910Z,99.90
2023-04-07T03:58:35.837Z,99.90
2023-04-07T04:01:03.400Z,99.90
2023-04-07T04:03:30.237Z,99.90
2023-04-07T04:05:56.903Z,99.90
2023-04-07T04:08:23.948Z,99.90
2023-04-07T04:10:51.177Z,99.90
2023-04-07T04:13:17.769Z,99.90
2023-04-07T04:15:44.647Z,99.90
2023-04-07T04:18:11.492Z,99.90
2023-04-07T04:20:38.104Z,99.90
2023-04-07T04:23:04.950Z,99.90
2023-04-07T04:25:31.520Z,99.90
2023-04-07T04:27:58.155Z,99.90
2023-04-07T04:30:24.765Z,99.90
2023-04-07T04:32:51.422Z,99.90
2023-04-07T04:35:18.179Z,99.90
2023-04-07T04:37:44.747Z,99.90
2023-04-07T04:40:11.877Z,99.90
2023-04-07T04:42:38.440Z,99.90
2023-04-07T04:45:05.769Z,99.90
2023-04-07T04:47:32.487Z,99.90
2023-04-07T04:49:59.202Z,99.90
2023-04-07T04:52:25.870Z,99.90
2023-04-07T04:54:52.713Z,99.90
2023-04-07T04:57:19.318Z,99.90
2023-04-07T04:59:46.103Z,99.90
2023-04-07T05:02:12.768Z,99.90
2023-04-07T05:04:39.523Z,99.90
2023-04-07T05:07:06.165Z,99.90
2023-04-07T05:09:33.050Z,99.90
2023-04-07T05:11:59.816Z,99.90
2023-04-07T05:14:26.638Z,99.90
2023-04-07T05:16:54.218Z,99.90
2023-04-07T05:19:21.130Z,99.90
2023-04-07T05:21:47.698Z,99.90
2023-04-07T05:24:14.323Z,99.90
2023-04-07T05:26:41.003Z,99.90
2023-04-07T05:29:07.601Z,99.90
2023-04-07T05:31:37.137Z,99.90
2023-04-07T05:34:04.008Z,99.90
2023-04-07T05:36:31.672Z,99.90
2023-04-07T05:38:58.284Z,99.90
2023-04-07T05:41:24.837Z,99.90
2023-04-07T05:43:51.586Z,99.90
2023-04-07T05:46:18.598Z,99.90
2023-04-07T05:48:45.475Z,99.90
2023-04-07T05:51:12.076Z,99.90
2023-04-07T05:53:38.647Z,99.90
2023-04-07T05:56:05.367Z,99.90
2023-04-07T05:58:32.643Z,99.90
2023-04-07T06:00:59.435Z,99.90
2023-04-07T06:03:26.179Z,99.90
2023-04-07T06:05:52.867Z,99.90
2023-04-07T06:08:19.413Z,99.90
2023-04-07T06:10:46.624Z,99.90
2023-04-07T06:13:13.242Z,99.90
2023-04-07T06:15:39.815Z,99.90
2023-04-07T06:18:06.587Z,99.90
2023-04-07T06:20:33.165Z,99.90
2023-04-07T06:22:59.715Z,99.90
2023-04-07T06:25:26.322Z,99.90
2023-04-07T06:27:54.242Z,99.90
2023-04-07T06:30:20.879Z,99.90
2023-04-07T06:32:47.473Z,99.90
2023-04-07T06:35:14.154Z,99.90
2023-04-07T06:37:40.980Z,99.90
2023-04-07T06:40:08.158Z,99.80
2023-04-07T06:42:34.748Z,98.40
2023-04-07T06:45:01.289Z,97.60
2023-04-07T06:47:28.222Z,97.10
2023-04-07T06:49:54.890Z,97.20
2023-04-07T06:52:21.623Z,96.50
2023-04-07T06:54:48.728Z,96.10
2023-04-07T06:57:15.579Z,95.70
2023-04-07T06:59:42.143Z,94.40
2023-04-07T07:02:08.945Z,92.20
2023-04-07T07:04:35.948Z,92.50
2023-04-07T07:07:03.273Z,92.20
2023-04-07T07:09:29.849Z,91.50
2023-04-07T07:11:56.420Z,91.10
2023-04-07T07:14:23.107Z,90.50
2023-04-07T07:16:49.656Z,88.10
2023-04-07T07:19:16.256Z,86.90
2023-04-07T07:21:42.909Z,86.40
2023-04-07T07:24:09.444Z,85.90
2023-04-07T07:26:36.275Z,86.40
2023-04-07T07:29:02.871Z,86.10
2023-04-07T07:31:30.900Z,85.60
2023-04-07T07:33:57.751Z,83.40
2023-04-07T07:36:24.342Z,81.40
2023-04-07T07:38:51.694Z,80.70
2023-04-07T07:41:18.576Z,81.90
2023-04-07T07:43:45.271Z,83.80
2023-04-07T07:46:12.225Z,79.10
2023-04-07T07:48:38.927Z,79.30
2023-04-07T07:51:05.855Z,78.70
2023-04-07T07:53:32.459Z,78.40
2023-04-07T07:55:59.122Z,77.70
2023-04-07T07:58:25.781Z,75.60
2023-04-07T08:00:52.332Z,75.20
2023-04-07T08:03:19.913Z,72.30
2023-04-07T08:05:48.430Z,71.50
2023-04-07T08:08:15.578Z,70.30
2023-04-07T08:10:42.152Z,69.70
2023-04-07T08:13:08.756Z,71.30
2023-04-07T08:15:35.310Z,72.20
2023-04-07T08:18:04.374Z,73.50
2023-04-07T08:20:31.745Z,73.30
2023-04-07T08:22:58.466Z,72.10
2023-04-07T08:25:25.114Z,70.80
2023-04-07T08:27:51.768Z,70.90
2023-04-07T08:30:18.413Z,71.20
2023-04-07T08:32:45.666Z,71.90
2023-04-07T08:35:12.419Z,70.90
2023-04-07T08:37:40.976Z,71.00
2023-04-07T08:40:07.898Z,72.30
2023-04-07T08:42:36.632Z,72.20
2023-04-07T08:45:07.254Z,72.10
2023-04-07T08:47:35.331Z,70.80
2023-04-07T08:50:11.334Z,70.00
2023-04-07T08:52:51.821Z,65.00
2023-04-07T08:55:18.495Z,64.30
2023-04-07T08:57:46.914Z,64.10
2023-04-07T09:00:14.043Z,62.10
2023-04-07T09:02:45.342Z,60.80
2023-04-07T09:05:14.433Z,62.60
2023-04-07T09:07:43.019Z,59.80
2023-04-07T09:10:10.071Z,61.50
2023-04-07T09:12:37.276Z,62.30
2023-04-07T09:15:06.168Z,58.00
2023-04-07T09:17:32.805Z,59.50
2023-04-07T09:20:01.031Z,58.10
2023-04-07T09:22:47.344Z,55.80
2023-04-07T09:25:18.029Z,54.90
2023-04-07T09:27:57.692Z,57.30
2023-04-07T09:30:24.735Z,54.60
2023-04-07T09:32:51.790Z,53.30
2023-04-07T09:35:18.772Z,52.50
2023-04-07T09:38:01.280Z,53.90
2023-04-07T09:40:27.898Z,54.80
2023-04-07T09:42:54.717Z,53.90
2023-04-07T09:47:58.974Z,54.70
2023-04-07T09:50:35.043Z,54.50
2023-04-07T09:53:03.156Z,53.60
2023-04-07T09:55:30.579Z,53.30
2023-04-07T09:57:57.557Z,53.30
2023-04-07T10:00:25.274Z,54.10
2023-04-07T10:02:53.171Z,54.30
2023-04-07T10:05:23.014Z,53.60
2023-04-07T10:07:49.900Z,53.70
2023-04-07T10:10:16.587Z,52.90
2023-04-07T10:12:44.356Z,51.10
2023-04-07T10:15:16.832Z,51.00
2023-04-07T10:17:48.447Z,51.20
2023-04-07T10:20:20.698Z,52.20
2023-04-07T10:22:50.116Z,53.20
2023-04-07T10:25:20.640Z,53.80
2023-04-07T10:27:56.259Z,54.20
2023-04-07T10:30:32.115Z,55.30
2023-04-07T10:32:59.692Z,55.70
2023-04-07T10:35:26.873Z,56.60
2023-04-07T10:38:08.804Z,56.30
2023-04-07T10:40:36.812Z,55.40
2023-04-07T10:43:04.542Z,55.40
2023-04-07T10:46:00.045Z,55.50
2023-04-07T10:48:28.543Z,54.40
2023-04-07T10:51:21.529Z,53.20
2023-04-07T10:54:23.132Z,52.60
2023-04-07T10:57:08.390Z,52.70
2023-04-07T10:59:34.998Z,53.00
2023-04-07T11:02:17.609Z,51.00
2023-04-07T11:04:45.937Z,51.60
2023-04-07T11:07:14.533Z,53.10
2023-04-07T11:09:42.157Z,52.40
2023-04-07T11:12:09.368Z,52.60
2023-04-07T11:14:37.489Z,51.60
2023-04-07T11:17:04.509Z,52.00
2023-04-07T11:19:33.787Z,52.10
2023-04-07T11:22:29.380Z,53.20
2023-04-07T11:24:56.969Z,53.60
2023-04-07T11:27:23.689Z,54.10
2023-04-07T11:29:50.387Z,52.30
2023-04-07T11:32:26.193Z,52.80
2023-04-07T11:34:52.916Z,51.70
2023-04-07T11:37:27.090Z,51.40
2023-04-07T11:39:55.414Z,50.90
2023-04-07T11:42:39.531Z,50.00
2023-04-07T11:45:16.444Z,51.00
2023-04-07T11:47:43.053Z,51.60
2023-04-07T11:50:10.337Z,52.50
2023-04-07T11:52:45.833Z,51.60
2023-04-07T11:55:24.328Z,51.50
2023-04-07T11:57:51.876Z,50.60
2023-04-07T12:00:20.329Z,51.30
2023-04-07T12:02:47.275Z,52.50
2023-04-07T12:05:14.092Z,51.50
2023-04-07T12:07:41.935Z,52.20
2023-04-07T12:10:22.350Z,52.70
2023-04-07T12:12:49.756Z,53.40
2023-04-07T12:15:16.621Z,53.70
2023-04-07T12:17:47.986Z,53.80
2023-04-07T12:20:15.844Z,52.80
2023-04-07T12:22:42.559Z,52.50
2023-04-07T12:25:09.231Z,52.20
2023-04-07T12:27:42.671Z,53.70
2023-04-07T12:30:11.153Z,51.30
2023-04-07T12:32:38.127Z,52.40
2023-04-07T12:35:07.884Z,53.20
2023-04-07T12:37:34.466Z,54.10
2023-04-07T12:40:01.028Z,52.60
2023-04-07T12:42:27.901Z,53.20
2023-04-07T12:44:54.507Z,52.70
2023-04-07T12:47:21.158Z,53.00
2023-04-07T12:49:49.667Z,52.80
2023-04-07T12:52:16.878Z,54.60
2023-04-07T12:54:44.309Z,53.80
2023-04-07T12:57:11.395Z,52.20
2023-04-07T12:59:38.231Z,54.20
2023-04-07T13:02:05.066Z,54.90
2023-04-07T13:04:32.087Z,53.90
2023-04-07T13:06:59.507Z,54.00
2023-04-07T13:09:26.194Z,53.10
2023-04-07T13:11:52.855Z,52.10
2023-04-07T13:14:19.686Z,52.20
2023-04-07T13:16:46.352Z,53.20
2023-04-07T13:19:13.081Z,54.20
2023-04-07T13:24:09.205Z,54.90
2023-04-07T13:26:36.069Z,53.30
2023-04-07T13:29:02.638Z,55.00
2023-04-07T13:31:30.312Z,55.00
2023-04-07T13:33:56.891Z,55.50
2023-04-07T13:36:24.665Z,53.40
2023-04-07T13:38:51.275Z,54.50
2023-04-07T13:41:17.813Z,54.70
2023-04-07T13:43:44.394Z,54.40
2023-04-07T13:46:27.057Z,54.10
2023-04-07T13:48:55.280Z,56.00
2023-04-07T13:51:21.973Z,56.30
2023-04-07T13:53:48.895Z,56.30
2023-04-07T13:56:15.762Z,56.00
2023-04-07T13:58:42.424Z,56.00
2023-04-07T14:01:09.120Z,57.60
2023-04-07T14:03:35.834Z,56.50
2023-04-07T14:06:02.809Z,57.70
2023-04-07T14:08:29.595Z,57.60
2023-04-07T14:10:56.222Z,60.00
2023-04-07T14:13:23.029Z,60.90
2023-04-07T14:15:50.326Z,57.50
2023-04-07T14:18:17.684Z,58.60
2023-04-07T14:20:44.454Z,60.60
2023-04-07T14:23:11.502Z,59.40
2023-04-07T14:25:38.099Z,58.50
2023-04-07T14:28:04.701Z,58.00
2023-04-07T14:30:31.511Z,61.50
2023-04-07T14:32:58.071Z,61.10
2023-04-07T14:35:24.668Z,60.90
2023-04-07T14:37:52.406Z,59.20
2023-04-07T14:40:21.198Z,59.40
2023-04-07T14:42:49.064Z,59.90
2023-04-07T14:45:17.739Z,61.80
2023-04-07T14:47:44.450Z,60.70
2023-04-07T14:50:11.430Z,62.40
2023-04-07T14:52:38.197Z,61.70
2023-04-07T14:55:05.262Z,61.60
2023-04-07T14:57:31.817Z,64.00
2023-04-07T14:59:58.368Z,64.00
2023-04-07T15:02:25.336Z,63.10
2023-04-07T15:04:52.151Z,63.40
2023-04-07T15:07:18.927Z,65.50
2023-04-07T15:09:47.582Z,64.40
2023-04-07T15:12:14.218Z,64.80
2023-04-07T15:14:40.820Z,65.20
2023-04-07T15:17:07.378Z,66.70
2023-04-07T15:19:33.955Z,66.50
2023-04-07T15:22:00.567Z,66.30
2023-04-07T15:24:27.339Z,66.10
2023-04-07T15:26:53.877Z,67.10
2023-04-07T15:29:20.480Z,67.40
2023-04-07T15:31:47.077Z,66.00
2023-04-07T15:34:13.935Z,67.10
2023-04-07T15:36:40.554Z,67.00
2023-04-07T15:39:07.149Z,67.80
2023-04-07T15:41:34.068Z,68.20
2023-04-07T15:44:01.307Z,68.10
2023-04-07T15:46:28.210Z,68.10
2023-04-07T15:48:55.298Z,68.30
2023-04-07T15:51:21.879Z,69.40
2023-04-07T15:53:48.710Z,68.30
2023-04-07T15:56:15.380Z,68.10
2023-04-07T15:58:41.954Z,69.00
2023-04-07T16:01:08.876Z,69.00
2023-04-07T16:03:35.712Z,69.10
2023-04-07T16:06:02.363Z,68.30
2023-04-07T16:08:28.999Z,70.30
2023-04-07T16:10:55.588Z,69.20
2023-04-07T16:13:22.131Z,69.20
2023-04-07T16:15:48.705Z,70.40
2023-04-07T16:18:15.350Z,69.30
2023-04-07T16:20:41.931Z,69.80
2023-04-07T16:23:09.403Z,70.80
2023-04-07T16:25:36.299Z,70.00
2023-04-07T16:28:02.856Z,70.50
2023-04-07T16:30:29.436Z,69.70
2023-04-07T16:32:56.121Z,69.10
2023-04-07T16:35:22.871Z,69.70
2023-04-07T16:37:50.318Z,70.50
2023-04-07T16:40:16.958Z,70.70
2023-04-07T16:42:43.650Z,69.80
2023-04-07T16:45:11.025Z,70.00
2023-04-07T16:47:37.984Z,70.70
2023-04-07T16:50:05.240Z,71.40
2023-04-07T16:52:32.089Z,72.50
2023-04-07T16:54:59.347Z,71.20
2023-04-07T16:57:26.018Z,71.60
2023-04-07T16:59:52.736Z,70.60
2023-04-07T17:02:19.680Z,71.10
2023-04-07T17:04:46.412Z,70.90
2023-04-07T17:07:13.073Z,71.50
2023-04-07T17:09:39.881Z,71.20
2023-04-07T17:12:06.668Z,73.20
2023-04-07T17:14:33.769Z,73.50
2023-04-07T17:17:01.134Z,73.10
2023-04-07T17:19:27.754Z,74.00
2023-04-07T17:21:54.357Z,75.90
2023-04-07T17:24:21.203Z,75.40
2023-04-07T17:26:47.990Z,76.30
2023-04-07T17:29:15.851Z,77.10
2023-04-07T17:31:43.172Z,77.60
2023-04-07T17:34:10.247Z,78.50
2023-04-07T17:36:37.581Z,78.40
2023-04-07T17:39:05.421Z,80.10
2023-04-07T17:41:34.979Z,79.50
2023-04-07T17:44:01.896Z,79.80
2023-04-07T17:46:28.740Z,82.50
2023-04-07T17:48:57.383Z,85.00
2023-04-07T17:51:25.025Z,87.00
2023-04-07T17:53:53.487Z,88.10
2023-04-07T17:56:20.896Z,89.30
2023-04-07T17:58:48.247Z,90.10
2023-04-07T18:01:15.634Z,90.30
2023-04-07T18:03:42.646Z,91.00
2023-04-07T18:06:09.572Z,91.40
2023-04-07T18:08:36.497Z,91.60
2023-04-07T18:11:05.220Z,91.90
2023-04-07T18:13:33.739Z,92.50
2023-04-07T18:16:00.844Z,92.70
2023-04-07T18:18:27.833Z,93.00
2023-04-07T18:20:54.407Z,93.70
2023-04-07T18:23:20.984Z,94.20
2023-04-07T18:25:47.820Z,94.70
2023-04-07T18:28:14.376Z,95.30
2023-04-07T18:30:41.884Z,95.70
2023-04-07T18:33:09.229Z,96.50
2023-04-07T18:35:35.985Z,96.70
2023-04-07T18:38:04.424Z,97.60
2023-04-07T18:40:33.224Z,98.10
2023-04-07T18:42:59.879Z,98.80
2023-04-07T18:45:26.548Z,99.50
2023-04-07T18:47:53.157Z,99.90
2023-04-07T18:50:19.700Z,99.90
2023-04-07T18:52:46.249Z,99.90
2023-04-07T18:55:13.332Z,99.90
2023-04-07T18:57:40.260Z,99.90
2023-04-07T19:00:08.375Z,99.90
2023-04-07T19:02:35.230Z,99.90
2023-04-07T19:05:01.949Z,99.90
2023-04-07T19:07:28.499Z,99.90
2023-04-07T19:09:55.379Z,99.90
2023-04-07T19:12:22.158Z,99.90
2023-04-07T19:14:48.728Z,99.90
2023-04-07T19:17:15.451Z,99.90
2023-04-07T19:19:42.034Z,99.90
2023-04-07T19:22:08.619Z,99.90
2023-04-07T19:24:36.044Z,99.90
2023-04-07T19:27:03.151Z,99.90
2023-04-07T19:29:29.771Z,99.90
2023-04-07T19:31:57.291Z,99.90
2023-04-07T19:34:23.997Z,99.90
2023-04-07T19:36:50.617Z,99.90
2023-04-07T19:39:17.462Z,99.90
2023-04-07T19:41:44.046Z,99.90
2023-04-07T19:44:10.754Z,99.90
2023-04-07T19:46:37.673Z,99.90
2023-04-07T19:49:04.242Z,99.90
2023-04-07T19:51:30.973Z,99.90
2023-04-07T19:53:57.522Z,99.90
2023-04-07T19:56:25.024Z,99.90
2023-04-07T19:58:51.732Z,99.90
2023-04-07T20:01:19.106Z,99.90
2023-04-07T20:03:46.646Z,99.90
2023-04-07T20:06:15.295Z,99.90
2023-04-07T20:08:42.483Z,99.90
2023-04-07T20:11:13.022Z,99.90
2023-04-07T20:13:40.498Z,99.90
2023-04-07T20:16:07.558Z,99.90
2023-04-07T20:18:34.276Z,99.90
2023-04-07T20:21:07.930Z,99.90
2023-04-07T20:23:34.531Z,99.90
2023-04-07T20:26:04.282Z,99.90
2023-04-07T20:28:31.137Z,99.90
2023-04-07T20:30:57.804Z,99.90
2023-04-07T20:33:24.672Z,99.90
2023-04-07T20:35:51.384Z,99.90
2023-04-07T20:38:18.627Z,99.90
2023-04-07T20:40:45.380Z,99.90
2023-04-07T20:43:11.970Z,99.90
2023-04-07T20:45:38.823Z,99.90
2023-04-07T20:48:05.612Z,99.90
2023-04-07T20:50:33.127Z,99.90
2023-04-07T20:52:59.743Z,99.90
2023-04-07T20:55:27.074Z,99.90
2023-04-07T20:57:54.512Z,99.90
2023-04-07T21:00:21.632Z,99.90
2023-04-07T21:02:48.964Z,99.90
2023-04-07T21:05:15.690Z,99.90
2023-04-07T21:07:42.320Z,99.90
2023-04-07T21:10:09.687Z,99.90
2023-04-07T21:12:36.445Z,99.90
2023-04-07T21:15:03.246Z,99.90
2023-04-07T21:17:29.843Z,99.90
2023-04-07T21:19:56.436Z,99.90
2023-04-07T21:22:23.095Z,99.90
2023-04-07T21:24:49.667Z,99.90
2023-04-07T21:27:16.675Z,99.90
2023-04-07T21:29:43.264Z,99.90
2023-04-07T21:32:10.524Z,99.90
2023-04-07T21:34:37.244Z,99.90
2023-04-07T21:37:04.064Z,99.90
2023-04-07T21:39:33.760Z,99.90
2023-04-07T21:42:01.383Z,99.90
2023-04-07T21:44:27.951Z,99.90
2023-04-07T21:46:54.597Z,99.90
2023-04-07T21:49:22.296Z,99.90
2023-04-07T21:51:49.137Z,99.90
2023-04-07T21:54:15.964Z,99.90
2023-04-07T21:56:42.779Z,99.90
2023-04-07T21:59:09.327Z,99.90
2023-04-07T22:01:36.171Z,99.90
2023-04-07T22:04:02.937Z,99.90
2023-04-07T22:06:29.563Z,99.90
2023-04-07T22:09:01.779Z,99.90
2023-04-07T22:11:29.324Z,99.90
2023-04-07T22:13:56.040Z,99.90
2023-04-07T22:16:22.673Z,99.90
2023-04-07T22:18:49.487Z,99.90
2023-04-07T22:21:16.447Z,99.90
2023-04-07T22:23:43.572Z,99.90
2023-04-07T22:26:10.287Z,99.90
2023-04-07T22:28:37.050Z,99.90
2023-04-07T22:31:03.996Z,99.90
2023-04-07T22:33:30.670Z,99.90
2023-04-07T22:35:57.353Z,99.90
2023-04-07T22:38:24.100Z,99.90
2023-04-07T22:40:50.699Z,99.90
2023-04-07T22:43:17.446Z,99.90
2023-04-07T22:45:44.033Z,99.90
2023-04-07T22:48:10.805Z,99.90
2023-04-07T22:50:37.539Z,99.90
2023-04-07T22:53:04.172Z,99.90
2023-04-07T22:55:30.737Z,99.90
2023-04-07T22:57:57.331Z,99.90
2023-04-07T23:00:23.907Z,99.90
2023-04-07T23:02:50.899Z,99.90
2023-04-07T23:05:17.702Z,99.90
2023-04-07T23:07:44.330Z,99.90
2023-04-07T23:10:11.246Z,99.90
2023-04-07T23:12:38.003Z,99.90
2023-04-07T23:15:05.236Z,99.90
2023-04-07T23:17:32.106Z,99.90
2023-04-07T23:19:58.717Z,99.90
2023-04-07T23:22:25.568Z,99.90
2023-04-07T23:24:52.128Z,99.90
2023-04-07T23:27:18.698Z,99.90
2023-04-07T23:29:45.246Z,99.90
2023-04-07T23:32:11.948Z,99.90
2023-04-07T23:34:40.422Z,99.90
2023-04-07T23:37:07.279Z,99.90
2023-04-07T23:39:34.328Z,99.90
2023-04-07T23:42:01.975Z,99.90
2023-04-07T23:44:28.544Z,99.90
2023-04-07T23:46:55.247Z,99.90
2023-04-07T23:49:22.161Z,99.90
2023-04-07T23:51:48.768Z,99.90
2023-04-07T23:54:16.090Z,99.90
2023-04-07T23:56:43.747Z,99.90
2023-04-07T23:59:10.309Z,99.90
